createdAt,value
2023-03-22T00:00:56.009Z,4.05
2023-03-22T00:03:23.060Z,4.75
2023-03-22T00:05:49.593Z,4.72
2023-03-22T00:08:15.978Z,4.82
2023-03-22T00:10:42.449Z,5.45
2023-03-22T00:13:09.659Z,4.60
2023-03-22T00:15:38.114Z,5.50
2023-03-22T00:18:05.763Z,5.13
2023-03-22T00:20:33.701Z,5.47
2023-03-22T00:23:00.706Z,6.78
2023-03-22T00:25:28.305Z,6.05
2023-03-22T00:27:54.817Z,6.50
2023-03-22T00:30:21.365Z,7.30
2023-03-22T00:32:50.965Z,6.82
2023-03-22T00:35:17.561Z,7.80
2023-03-22T00:37:43.997Z,7.35
2023-03-22T00:40:14.103Z,8.63
2023-03-22T00:42:41.348Z,9.15
2023-03-22T00:45:08.940Z,11.30
2023-03-22T00:47:35.525Z,10.93
2023-03-22T00:50:02.351Z,12.15
2023-03-22T00:52:29.584Z,13.60
2023-03-22T00:54:56.411Z,12.35
2023-03-22T00:57:22.836Z,13.65
2023-03-22T00:59:49.517Z,13.13
2023-03-22T01:02:16.002Z,13.80
2023-03-22T01:04:46.942Z,12.95
2023-03-22T01:09:45.308Z,12.98
2023-03-22T01:12:12.136Z,13.90
2023-03-22T01:14:38.667Z,13.20
2023-03-22T01:17:05.422Z,14.75
2023-03-22T01:19:31.958Z,14.75
2023-03-22T01:21:58.363Z,14.50
2023-03-22T01:24:24.820Z,14.85
2023-03-22T01:26:51.414Z,14.98
2023-03-22T01:29:17.825Z,14.63
2023-03-22T01:31:44.567Z,14.13
2023-03-22T01:34:11.110Z,13.93
2023-03-22T01:36:37.580Z,15.35
2023-03-22T01:39:04.476Z,13.52
2023-03-22T01:41:35.072Z,14.30
2023-03-22T01:44:08.897Z,14.60
2023-03-22T01:46:35.414Z,12.52
2023-03-22T01:49:02.712Z,12.93
2023-03-22T01:51:29.522Z,12.63
2023-03-22T01:53:58.855Z,12.88
2023-03-22T01:56:26.849Z,12.75
2023-03-22T01:58:54.008Z,12.38
2023-03-22T02:01:21.126Z,9.77
2023-03-22T02:03:48.033Z,10.98
2023-03-22T02:06:14.568Z,10.35
2023-03-22T02:08:43.045Z,9.13
2023-03-22T02:11:13.164Z,9.93
2023-03-22T02:13:48.589Z,8.18
2023-03-22T02:16:14.985Z,7.70
2023-03-22T02:18:56.248Z,8.20
2023-03-22T02:21:47.464Z,6.38
2023-03-22T02:24:32.882Z,5.97
2023-03-22T02:27:09.211Z,5.85
2023-03-22T02:29:35.612Z,5.32
2023-03-22T02:32:16.961Z,5.90
2023-03-22T02:34:46.136Z,5.20
2023-03-22T02:37:32.816Z,5.30
2023-03-22T02:40:05.693Z,4.70
2023-03-22T02:42:32.095Z,4.13
2023-03-22T02:45:18.757Z,4.65
2023-03-22T02:48:04.501Z,5.13
2023-03-22T02:50:38.236Z,4.00
2023-03-22T02:53:34.383Z,3.95
2023-03-22T02:56:00.967Z,4.32
2023-03-22T02:58:30.424Z,4.22
2023-03-22T03:00:59.565Z,3.55
2023-03-22T03:03:30.085Z,4.32
2023-03-22T03:06:08.492Z,4.55
2023-03-22T03:08:35.410Z,4.75
2023-03-22T03:11:01.836Z,3.90
2023-03-22T03:13:28.271Z,3.20
2023-03-22T03:15:57.416Z,3.92
2023-03-22T03:18:32.792Z,3.42
2023-03-22T03:21:00.402Z,4.57
2023-03-22T03:23:29.622Z,4.10
2023-03-22T03:26:13.701Z,4.20
2023-03-22T03:28:55.475Z,5.43
2023-03-22T03:31:34.802Z,4.78
2023-03-22T03:34:11.087Z,5.95
2023-03-22T03:36:39.653Z,6.80
2023-03-22T03:39:08.832Z,8.30
2023-03-22T03:41:35.561Z,8.60
2023-03-22T03:44:02.892Z,9.98
2023-03-22T03:46:29.702Z,9.88
2023-03-22T03:48:59.514Z,12.48
2023-03-22T03:51:27.347Z,9.80
2023-03-22T03:53:53.971Z,11.73
2023-03-22T03:56:20.520Z,12.02
2023-03-22T03:58:46.934Z,11.73
2023-03-22T04:01:13.425Z,11.77
2023-03-22T04:03:39.851Z,11.60
2023-03-22T04:06:08.981Z,11.60
2023-03-22T04:08:35.596Z,12.23
2023-03-22T04:11:01.996Z,11.88
2023-03-22T04:13:29.809Z,12.07
2023-03-22T04:15:58.074Z,11.88
2023-03-22T04:18:24.602Z,10.07
2023-03-22T04:20:53.468Z,11.60
2023-03-22T04:23:22.512Z,12.45
2023-03-22T04:25:50.308Z,12.60
2023-03-22T04:28:19.746Z,11.85
2023-03-22T04:30:51.028Z,10.90
2023-03-22T04:33:22.803Z,11.82
2023-03-22T04:35:50.468Z,11.23
2023-03-22T04:38:17.915Z,12.23
2023-03-22T04:40:46.857Z,13.88
2023-03-22T04:43:13.991Z,14.90
2023-03-22T04:45:42.109Z,17.63
2023-03-22T04:48:10.607Z,15.20
2023-03-22T04:50:37.731Z,14.82
2023-03-22T04:53:04.313Z,13.18
2023-03-22T04:55:30.715Z,14.73
2023-03-22T04:57:57.247Z,14.30
2023-03-22T05:00:23.992Z,13.45
2023-03-22T05:02:50.717Z,13.25
2023-03-22T05:05:17.241Z,14.80
2023-03-22T05:07:43.645Z,14.55
2023-03-22T05:10:10.664Z,15.98
2023-03-22T05:12:37.062Z,13.93
2023-03-22T05:15:06.076Z,13.35
2023-03-22T05:17:32.647Z,13.95
2023-03-22T05:19:59.138Z,13.50
2023-03-22T05:22:25.509Z,14.25
2023-03-22T05:24:52.044Z,15.13
2023-03-22T05:27:30.306Z,14.10
2023-03-22T05:29:56.738Z,14.15
2023-03-22T05:32:25.590Z,14.98
2023-03-22T05:34:55.981Z,15.38
2023-03-22T05:37:22.512Z,12.82
2023-03-22T05:39:48.968Z,12.75
2023-03-22T05:42:15.508Z,13.38
2023-03-22T05:44:41.946Z,13.75
2023-03-22T05:47:08.419Z,13.50
2023-03-22T05:49:34.836Z,13.98
2023-03-22T05:52:04.294Z,14.40
2023-03-22T05:54:31.391Z,15.35
2023-03-22T05:56:57.779Z,13.38
2023-03-22T05:59:24.324Z,14.13
2023-03-22T06:01:51.197Z,14.45
2023-03-22T06:04:18.764Z,13.63
2023-03-22T06:06:45.423Z,13.95
2023-03-22T06:09:17.436Z,14.18
2023-03-22T06:11:44.457Z,15.02
2023-03-22T06:14:11.055Z,12.80
2023-03-22T06:16:37.610Z,13.40
2023-03-22T06:19:04.160Z,12.95
2023-03-22T06:21:30.637Z,12.77
2023-03-22T06:23:57.042Z,11.57
2023-03-22T06:26:25.879Z,10.98
2023-03-22T06:28:52.548Z,10.98
2023-03-22T06:31:19.031Z,10.10
2023-03-22T06:33:45.667Z,10.98
2023-03-22T06:36:12.106Z,9.75
2023-03-22T06:38:38.561Z,11.32
2023-03-22T06:41:05.129Z,10.40
2023-03-22T06:43:31.524Z,8.90
2023-03-22T06:45:57.954Z,9.32
2023-03-22T06:48:24.460Z,9.30
2023-03-22T06:50:50.897Z,9.15
2023-03-22T06:53:17.492Z,7.93
2023-03-22T06:55:43.919Z,7.30
2023-03-22T06:58:10.557Z,7.43
2023-03-22T07:00:38.814Z,7.40
2023-03-22T07:03:05.813Z,7.15
2023-03-22T07:05:32.263Z,7.57
2023-03-22T07:07:58.855Z,8.48
2023-03-22T07:10:25.817Z,7.75
2023-03-22T07:12:52.301Z,8.90
2023-03-22T07:15:20.148Z,9.40
2023-03-22T07:17:46.650Z,10.30
2023-03-22T07:20:13.160Z,9.90
2023-03-22T07:22:39.748Z,9.98
2023-03-22T07:25:08.292Z,9.93
2023-03-22T07:27:34.706Z,10.90
2023-03-22T07:30:01.093Z,10.52
2023-03-22T07:32:27.586Z,11.57
2023-03-22T07:34:54.035Z,12.40
2023-03-22T07:37:20.581Z,11.25
2023-03-22T07:39:46.971Z,11.43
2023-03-22T07:42:13.430Z,11.60
2023-03-22T07:44:39.971Z,11.40
2023-03-22T07:47:06.373Z,11.80
2023-03-22T07:49:32.796Z,11.20
2023-03-22T07:51:59.650Z,10.48
2023-03-22T07:54:33.554Z,10.30
2023-03-22T07:57:01.203Z,10.85
2023-03-22T07:59:29.960Z,11.43
2023-03-22T08:01:56.538Z,11.85
2023-03-22T08:04:23.069Z,11.13
2023-03-22T08:06:49.998Z,11.70
2023-03-22T08:09:16.580Z,10.82
2023-03-22T08:11:42.982Z,10.30
2023-03-22T08:14:09.392Z,10.82
2023-03-22T08:16:36.010Z,12.68
2023-03-22T08:19:02.606Z,12.07
2023-03-22T08:21:29.165Z,11.68
2023-03-22T08:23:55.923Z,11.23
2023-03-22T08:26:24.991Z,11.25
2023-03-22T08:28:51.955Z,12.02
2023-03-22T08:31:19.052Z,12.75
2023-03-22T08:33:46.290Z,12.90
2023-03-22T08:36:14.646Z,12.40
2023-03-22T08:38:46.474Z,14.70
2023-03-22T08:41:15.158Z,14.40
2023-03-22T08:43:42.049Z,15.77
2023-03-22T08:46:09.057Z,15.50
2023-03-22T08:48:38.124Z,15.63
2023-03-22T08:51:06.072Z,15.23
2023-03-22T08:53:32.543Z,15.93
2023-03-22T08:56:02.596Z,16.33
2023-03-22T08:58:29.072Z,15.77
2023-03-22T09:00:57.282Z,17.88
2023-03-22T09:03:24.931Z,16.90
2023-03-22T09:05:51.680Z,16.85
2023-03-22T09:08:19.757Z,16.85
2023-03-22T09:10:48.339Z,16.40
2023-03-22T09:13:17.637Z,16.92
2023-03-22T09:15:45.045Z,17.02
2023-03-22T09:18:13.941Z,17.60
2023-03-22T09:20:40.825Z,17.25
2023-03-22T09:23:07.404Z,17.58
2023-03-22T09:25:33.914Z,18.17
2023-03-22T09:28:00.291Z,18.60
2023-03-22T09:30:27.246Z,17.88
2023-03-22T09:32:53.698Z,18.95
2023-03-22T09:35:20.183Z,16.92
2023-03-22T09:37:49.256Z,16.80
2023-03-22T09:40:17.416Z,16.90
2023-03-22T09:42:48.436Z,19.25
2023-03-22T09:45:20.171Z,17.85
2023-03-22T09:47:48.628Z,18.90
2023-03-22T09:50:22.929Z,16.10
2023-03-22T09:52:50.466Z,16.55
2023-03-22T09:55:30.477Z,18.95
2023-03-22T09:58:07.610Z,16.40
2023-03-22T10:00:51.869Z,16.95
2023-03-22T10:03:23.537Z,16.55
2023-03-22T10:05:57.426Z,16.10
2023-03-22T10:08:30.083Z,16.90
2023-03-22T10:10:57.650Z,18.70
2023-03-22T10:13:41.519Z,17.55
2023-03-22T10:16:12.011Z,16.23
2023-03-22T10:18:40.782Z,18.50
2023-03-22T10:21:09.203Z,17.65
2023-03-22T10:23:39.342Z,18.33
2023-03-22T10:26:07.314Z,16.67
2023-03-22T10:28:41.282Z,14.98
2023-03-22T10:31:14.297Z,14.52
2023-03-22T10:33:50.196Z,10.18
2023-03-22T10:36:18.349Z,11.38
2023-03-22T10:38:47.921Z,12.02
2023-03-22T10:41:18.686Z,10.90
2023-03-22T10:43:47.604Z,9.65
2023-03-22T10:46:17.897Z,9.45
2023-03-22T10:48:45.494Z,11.55
2023-03-22T10:51:18.090Z,11.00
2023-03-22T10:53:46.609Z,10.15
2023-03-22T10:56:15.630Z,10.73
2023-03-22T10:58:46.390Z,10.10
2023-03-22T11:01:24.489Z,9.50
2023-03-22T11:03:52.110Z,9.25
2023-03-22T11:06:19.719Z,9.95
2023-03-22T11:08:47.606Z,8.98
2023-03-22T11:11:19.535Z,8.88
2023-03-22T11:14:12.170Z,9.98
2023-03-22T11:16:47.876Z,10.32
2023-03-22T11:19:17.909Z,10.38
2023-03-22T11:21:45.156Z,9.90
2023-03-22T11:24:15.849Z,9.63
2023-03-22T11:26:42.420Z,10.40
2023-03-22T11:29:18.879Z,10.07
2023-03-22T11:32:03.759Z,9.88
2023-03-22T11:34:31.673Z,10.20
2023-03-22T11:37:01.540Z,9.77
2023-03-22T11:39:29.400Z,10.98
2023-03-22T11:42:01.489Z,10.35
2023-03-22T11:44:29.063Z,10.48
2023-03-22T11:46:58.078Z,9.88
2023-03-22T11:49:27.102Z,9.48
2023-03-22T11:51:54.687Z,10.00
2023-03-22T11:54:29.896Z,9.18
2023-03-22T11:57:02.037Z,10.48
2023-03-22T11:59:38.806Z,8.32
2023-03-22T12:02:05.358Z,8.88
2023-03-22T12:04:35.020Z,9.52
2023-03-22T12:07:03.708Z,8.52
2023-03-22T12:09:41.909Z,8.63
2023-03-22T12:12:11.998Z,7.57
2023-03-22T12:15:10.973Z,7.93
2023-03-22T12:17:56.057Z,7.72
2023-03-22T12:20:25.627Z,8.32
2023-03-22T12:22:55.488Z,7.10
2023-03-22T12:25:31.010Z,6.80
2023-03-22T12:27:59.326Z,6.55
2023-03-22T12:30:31.497Z,5.65
2023-03-22T12:33:03.721Z,6.25
2023-03-22T12:35:35.222Z,5.10
2023-03-22T12:38:09.964Z,5.05
2023-03-22T12:40:41.105Z,4.68
2023-03-22T12:43:17.500Z,3.97
2023-03-22T12:45:49.128Z,4.07
2023-03-22T12:48:18.739Z,3.92
2023-03-22T12:50:51.380Z,4.30
2023-03-22T12:53:19.121Z,3.85
2023-03-22T12:55:50.697Z,4.95
2023-03-22T12:58:20.820Z,3.80
2023-03-22T13:00:53.994Z,4.28
2023-03-22T13:03:24.714Z,3.95
2023-03-22T13:06:02.544Z,3.88
2023-03-22T13:08:48.927Z,3.97
2023-03-22T13:11:22.575Z,4.05
2023-03-22T13:13:49.060Z,3.90
2023-03-22T13:16:17.152Z,3.97
2023-03-22T13:18:49.715Z,3.92
2023-03-22T13:21:16.494Z,4.28
2023-03-22T13:23:53.528Z,3.10
2023-03-22T13:26:20.671Z,3.50
2023-03-22T13:28:57.400Z,3.30
2023-03-22T13:31:37.986Z,3.63
2023-03-22T13:34:04.947Z,3.33
2023-03-22T13:36:32.012Z,3.28
2023-03-22T13:38:59.483Z,3.90
2023-03-22T13:41:30.681Z,3.58
2023-03-22T13:44:02.015Z,3.60
2023-03-22T13:46:28.517Z,3.35
2023-03-22T13:48:54.971Z,3.85
2023-03-22T13:51:25.499Z,4.20
2023-03-22T13:53:58.010Z,3.95
2023-03-22T13:56:43.229Z,3.58
2023-03-22T13:59:34.027Z,3.78
2023-03-22T14:02:04.830Z,4.43
2023-03-22T14:07:04.289Z,3.40
2023-03-22T14:09:35.785Z,4.10
2023-03-22T14:12:11.460Z,4.15
2023-03-22T14:14:41.948Z,4.00
2023-03-22T14:17:26.922Z,4.20
2023-03-22T14:19:53.521Z,4.95
